Sunday, October 21, 2018, 7:58 PM EDT
Back to Local

KMLT, Millinocket Municipal Airport

Location: Millinocket, ME, United States Lat: 45.65
Local Time: 7:58 PM EDT (23:58 GMT) Lon: -68.7
Time Zone: US/Eastern Elev: 406 ft

Show me the last for .
Show Decoded

2018-10-21 18:53 METAR KMLT 212253Z AUTO 30012G21KT 10SM OVC050 02/M08 A2981 RMK AO2 SLP103
                 T00221078 =
2018-10-21 17:53 METAR KMLT 212153Z AUTO 30011G18KT 10SM OVC046 02/M07 A2978 RMK AO2 SLP095
                 T00221072 =
2018-10-21 16:53 METAR KMLT 212053Z AUTO 30010G19KT 10SM OVC038 02/M07 A2975 RMK AO2 SLP084
                 T00221067 53015 =
2018-10-21 15:53 METAR KMLT 211953Z AUTO 31013G20KT 10SM OVC043 03/M06 A2973 RMK AO2 SLP075
                 T00331061 =
2018-10-21 14:53 METAR KMLT 211853Z AUTO 29014G22KT 10SM BKN048 04/M07 A2971 RMK AO2 SLP070
                 T00441067 =
2018-10-21 13:53 METAR KMLT 211753Z AUTO 30011G23KT 10SM BKN048 04/M06 A2971 RMK AO2 SLP069
                 T00441056 10061 20022 51007 =
2018-10-21 12:53 METAR KMLT 211653Z AUTO 29009G18KT 250V310 10SM BKN049 05/M06 A2970 RMK AO2
                 SLP066 T00501056 =
2018-10-21 11:53 METAR KMLT 211553Z AUTO 29015G23KT 10SM BKN045 05/M06 A2971 RMK AO2 SLP067
                 T00501056 =
2018-10-21 10:53 METAR KMLT 211453Z AUTO 31017G22KT 10SM FEW036 05/M04 A2969 RMK AO2 PK WND
                 32027/1433 SLP060 T00501044 53008 =
2018-10-21 09:53 METAR KMLT 211353Z AUTO 31017G27KT 10SM CLR 04/M05 A2968 RMK AO2 PK WND
                 31032/1312 SLP056 T00441050 =
2018-10-21 08:53 METAR KMLT 211253Z AUTO 31019G27KT 10SM CLR 03/M04 A2967 RMK AO2 PK WND
                 32027/1251 SLP054 T00331039 =
2018-10-21 07:53 METAR KMLT 211153Z AUTO 29010G17KT 10SM CLR 02/M04 A2966 RMK AO2 SLP052
                 T00221039 10028 20006 53026 =
2018-10-21 06:53 METAR KMLT 211053Z AUTO 29006KT 10SM FEW025 02/M03 A2964 RMK AO2 SLP042
                 T00171033 =
2018-10-21 05:53 METAR KMLT 210953Z AUTO 29007KT 10SM CLR 02/M03 A2961 RMK AO2 SLP035 T00221033 =
2018-10-21 04:53 METAR KMLT 210853Z AUTO 31011G18KT 10SM CLR 02/M02 A2959 RMK AO2 SLP026
                 T00221022 51007 =
2018-10-21 03:53 METAR KMLT 210753Z AUTO 32004KT 10SM CLR 01/M02 A2958 RMK AO2 SLP025 T00111017 =
2018-10-21 02:53 METAR KMLT 210653Z AUTO 00000KT 10SM CLR 02/M01 A2957 RMK AO2 SLP020 T00171011 =
2018-10-21 01:53 METAR KMLT 210553Z AUTO 00000KT 10SM CLR 03/M01 A2957 RMK AO2 SLP019 T00331011
                 10117 20033 51016 =
2018-10-21 00:53 METAR KMLT 210453Z AUTO 33006KT 10SM CLR 06/M01 A2956 RMK AO2 SLP016 T00561006
                 401670056 =
2018-10-20 23:53 METAR KMLT 210353Z AUTO 00000KT 10SM CLR 07/00 A2955 RMK AO2 SLP010 T00720000 =
2018-10-20 22:53 METAR KMLT 210253Z AUTO 28005KT 10SM CLR 08/00 A2952 RMK AO2 SLP002 T00830000
                 51011 =
2018-10-20 21:53 METAR KMLT 210153Z AUTO 26005KT 10SM CLR 08/M01 A2952 RMK AO2 SLP002 T00831006 =
2018-10-20 20:53 METAR KMLT 210053Z AUTO 28004KT 10SM CLR 10/M02 A2951 RMK AO2 SLP999 T01001017 =

Support USWX by starting your Amazon purchase here.